Time;durP1;ratioP1;P1;durP2;ratioP2;P2;SDS_P1;SDS_P2;PMS_P1;PMS_P2;Temp;Humidity;BMP_temperature;BMP_pressure;BME280_temperature;BME280_humidity;BME280_pressure;Samples;Min_cycle;Max_cycle;Signal;HPM_P1;HPM_P2
2022/08/28 00:00:34;;;;;;;9.27;4.65;;;16.70;99.90;;;;;;5069745;28;20240;-51
2022/08/28 00:03:02;;;;;;;7.43;4.72;;;16.70;99.90;;;;;;5059563;28;20263;-51
2022/08/28 00:05:33;;;;;;;7.75;4.97;;;16.60;99.90;;;;;;5056400;28;20319;-51
2022/08/28 00:08:01;;;;;;;10.23;4.80;;;16.60;99.90;;;;;;5070046;28;20686;-51
2022/08/28 00:10:29;;;;;;;15.55;4.55;;;16.50;99.90;;;;;;5069568;28;20262;-52
2022/08/28 00:12:57;;;;;;;9.45;4.70;;;16.50;99.90;;;;;;5069523;28;20627;-52
2022/08/28 00:15:30;;;;;;;9.50;4.70;;;16.50;99.90;;;;;;5069034;28;20237;-51
2022/08/28 00:18:00;;;;;;;8.68;4.13;;;16.50;99.90;;;;;;5065358;28;20209;-51
2022/08/28 00:20:29;;;;;;;7.53;4.40;;;16.40;99.90;;;;;;5065323;28;20262;-52
2022/08/28 00:22:59;;;;;;;9.23;4.30;;;16.40;99.90;;;;;;5069151;28;20204;-52
2022/08/28 00:25:30;;;;;;;8.10;4.40;;;16.40;99.90;;;;;;5068988;28;20228;-52
2022/08/28 00:27:59;;;;;;;6.70;4.28;;;16.30;99.90;;;;;;5064973;28;20198;-51
2022/08/28 00:30:30;;;;;;;12.60;4.45;;;16.30;99.90;;;;;;5063133;28;20239;-51
2022/08/28 00:33:03;;;;;;;7.30;4.40;;;16.30;99.90;;;;;;5065341;28;20215;-52
2022/08/28 00:35:31;;;;;;;9.63;4.40;;;16.30;99.90;;;;;;5069205;28;20209;-52
2022/08/28 00:37:59;;;;;;;8.63;4.20;;;16.30;99.90;;;;;;5069626;28;20211;-51
2022/08/28 00:40:30;;;;;;;8.45;4.40;;;16.30;99.90;;;;;;5064041;28;20240;-52
2022/08/28 00:43:00;;;;;;;10.48;4.45;;;16.30;99.90;;;;;;5066437;28;20237;-51
2022/08/28 00:45:29;;;;;;;6.80;3.90;;;16.30;99.90;;;;;;5069671;28;20201;-51
2022/08/28 00:47:58;;;;;;;10.80;4.35;;;16.30;99.90;;;;;;5068882;28;20282;-52
2022/08/28 00:52:04;;;;;;;8.20;4.20;;;16.30;99.90;;;;;;5068401;28;20216;-52
2022/08/28 00:53:18;;;;;;;10.85;3.63;;;16.30;99.90;;;;;;5067920;28;20201;-52
2022/08/28 00:55:46;;;;;;;5.20;3.95;;;16.40;99.90;;;;;;5059731;28;20206;-52
2022/08/28 00:58:14;;;;;;;7.95;4.03;;;16.40;99.90;;;;;;5065743;28;20204;-52
2022/08/28 01:00:43;;;;;;;9.43;4.03;;;16.40;99.90;;;;;;5067236;28;20241;-52
2022/08/28 01:03:12;;;;;;;9.25;4.18;;;16.40;99.90;;;;;;5069080;28;20251;-51
2022/08/28 01:05:45;;;;;;;10.05;3.65;;;16.30;99.90;;;;;;5070722;28;20287;-51
2022/08/28 01:08:13;;;;;;;7.45;3.90;;;16.40;99.90;;;;;;5072715;28;20266;-51
2022/08/28 01:10:44;;;;;;;10.13;4.05;;;16.30;99.90;;;;;;5072589;28;20708;-51
2022/08/28 01:13:13;;;;;;;9.73;4.35;;;16.30;99.90;;;;;;5072469;28;20208;-51
2022/08/28 01:15:42;;;;;;;8.63;3.85;;;16.30;99.90;;;;;;5073160;28;20286;-51
2022/08/28 01:18:14;;;;;;;9.00;4.38;;;16.30;99.90;;;;;;5067076;28;20209;-52
2022/08/28 01:20:50;;;;;;;6.63;3.72;;;16.30;99.90;;;;;;5072217;28;20209;-51
2022/08/28 01:23:29;;;;;;;8.43;4.25;;;16.20;99.90;;;;;;5072780;28;20209;-52
2022/08/28 01:26:00;;;;;;;7.90;3.92;;;16.20;99.90;;;;;;5072703;28;20254;-51
2022/08/28 01:28:33;;;;;;;8.18;4.38;;;16.10;99.90;;;;;;5062966;28;20209;-51
2022/08/28 01:31:01;;;;;;;8.38;4.25;;;16.00;99.90;;;;;;5068236;28;20680;-51
2022/08/28 01:33:29;;;;;;;8.40;4.05;;;16.00;99.90;;;;;;5064418;28;20221;-51
2022/08/28 01:35:58;;;;;;;10.82;4.05;;;16.00;99.90;;;;;;5071426;28;20205;-51
2022/08/28 01:38:27;;;;;;;10.98;4.03;;;16.00;99.90;;;;;;5061655;28;20266;-52
2022/08/28 01:40:56;;;;;;;6.43;3.63;;;16.10;99.90;;;;;;5062531;28;20206;-51
2022/08/28 01:43:27;;;;;;;9.20;4.18;;;16.10;99.90;;;;;;5063880;28;20281;-51
2022/08/28 01:46:00;;;;;;;8.52;3.80;;;16.20;99.90;;;;;;5071524;28;20274;-51
2022/08/28 01:48:30;;;;;;;7.55;3.65;;;16.20;99.90;;;;;;5072078;28;20205;-51
2022/08/28 01:50:58;;;;;;;9.15;3.50;;;16.30;99.90;;;;;;5072428;28;20228;-51
2022/08/28 01:53:27;;;;;;;9.93;3.70;;;16.30;99.90;;;;;;5072184;28;20230;-51
2022/08/28 01:56:01;;;;;;;8.13;3.75;;;16.40;99.90;;;;;;5071667;28;20681;-52
2022/08/28 01:58:32;;;;;;;7.50;3.70;;;16.50;99.90;;;;;;5072208;28;20225;-51
2022/08/28 02:01:09;;;;;;;9.80;3.72;;;16.50;99.90;;;;;;5071758;28;20215;-51
2022/08/28 02:03:38;;;;;;;8.68;3.83;;;16.50;99.90;;;;;;5072066;28;20282;-52
2022/08/28 02:06:06;;;;;;;8.07;3.40;;;16.50;99.90;;;;;;5071681;28;20251;-51
2022/08/28 02:08:35;;;;;;;8.70;3.40;;;16.50;99.90;;;;;;5072298;28;20278;-51
2022/08/28 02:11:05;;;;;;;9.93;3.80;;;16.50;99.90;;;;;;5072046;28;20262;-51
2022/08/28 02:13:36;;;;;;;9.63;3.60;;;16.40;99.90;;;;;;5071290;28;20245;-51
2022/08/28 02:16:06;;;;;;;7.50;3.25;;;16.40;99.90;;;;;;5071137;28;20267;-52
2022/08/28 02:18:34;;;;;;;10.32;3.45;;;16.40;99.90;;;;;;5066264;28;20217;-52
2022/08/28 02:21:02;;;;;;;7.10;3.53;;;16.40;99.90;;;;;;5071709;28;20217;-52
2022/08/28 02:23:30;;;;;;;8.93;3.60;;;16.40;99.90;;;;;;5071479;28;20228;-51
2022/08/28 02:25:58;;;;;;;11.25;4.10;;;16.40;99.90;;;;;;5071317;28;20209;-52
2022/08/28 02:28:27;;;;;;;7.57;3.20;;;16.40;99.90;;;;;;5064567;28;20282;-52
2022/08/28 02:30:56;;;;;;;8.02;3.15;;;16.40;99.90;;;;;;5071169;28;20263;-51
2022/08/28 02:33:24;;;;;;;9.65;3.60;;;16.30;99.90;;;;;;5070289;28;20311;-52
2022/08/28 02:35:52;;;;;;;10.02;3.80;;;16.30;99.90;;;;;;5071477;28;20609;-50
2022/08/28 02:38:21;;;;;;;7.78;3.50;;;16.30;99.90;;;;;;5071731;28;20204;-52
2022/08/28 02:40:49;;;;;;;7.75;3.72;;;16.20;99.90;;;;;;5068119;28;20205;-52
2022/08/28 02:43:17;;;;;;;8.07;3.60;;;16.20;99.90;;;;;;5071002;28;20255;-50
2022/08/28 02:45:45;;;;;;;8.77;3.20;;;16.20;99.90;;;;;;5071053;28;20201;-52
2022/08/28 02:48:16;;;;;;;7.80;3.50;;;16.20;99.90;;;;;;5060739;28;20228;-52
2022/08/28 02:50:45;;;;;;;7.18;3.47;;;16.20;99.90;;;;;;5050707;28;20216;-52
2022/08/28 02:53:13;;;;;;;7.95;3.50;;;16.20;99.90;;;;;;5051236;28;20212;-52
2022/08/28 02:55:41;;;;;;;9.25;3.80;;;16.20;99.90;;;;;;5049825;28;20251;-52
2022/08/28 02:58:09;;;;;;;12.68;3.38;;;16.20;99.90;;;;;;5051270;28;20206;-52
2022/08/28 03:00:37;;;;;;;10.20;3.78;;;16.20;99.90;;;;;;5050646;28;20646;-51
2022/08/28 03:03:05;;;;;;;12.60;3.50;;;16.20;99.90;;;;;;5050220;28;20205;-51
2022/08/28 03:05:35;;;;;;;6.15;3.15;;;16.20;99.90;;;;;;5050896;28;20213;-51
2022/08/28 03:08:03;;;;;;;9.15;3.67;;;16.30;99.90;;;;;;5050288;28;20222;-51
2022/08/28 03:10:31;;;;;;;8.20;3.70;;;16.30;99.90;;;;;;5050473;28;20205;-52
2022/08/28 03:13:00;;;;;;;6.20;3.58;;;16.20;99.90;;;;;;5050064;28;20710;-51
2022/08/28 03:15:28;;;;;;;9.60;4.00;;;16.20;99.90;;;;;;5050454;28;20275;-52
2022/08/28 03:17:56;;;;;;;5.65;3.42;;;16.20;99.90;;;;;;5049742;28;20752;-52
2022/08/28 03:20:24;;;;;;;6.70;3.88;;;16.10;99.90;;;;;;5050442;28;20202;-52
2022/08/28 03:25:39;;;;;;;11.23;3.67;;;16.00;99.90;;;;;;5069762;28;20219;-51
2022/08/28 03:28:07;;;;;;;9.43;3.55;;;16.00;99.90;;;;;;5068281;28;20634;-51
2022/08/28 03:30:35;;;;;;;9.48;4.07;;;16.00;99.90;;;;;;5069668;28;20682;-51
2022/08/28 03:33:03;;;;;;;8.85;3.90;;;15.90;99.90;;;;;;5060521;28;20237;-52
2022/08/28 03:35:31;;;;;;;8.60;4.10;;;15.90;99.90;;;;;;5069890;28;20278;-51
2022/08/28 03:38:00;;;;;;;11.13;3.78;;;15.90;99.90;;;;;;5069926;28;20205;-52
2022/08/28 03:40:29;;;;;;;8.48;3.63;;;15.80;99.90;;;;;;5064361;28;20265;-51
2022/08/28 03:42:57;;;;;;;10.63;4.05;;;15.80;99.90;;;;;;5064189;28;20209;-52
2022/08/28 03:45:26;;;;;;;9.70;3.58;;;15.80;99.90;;;;;;5069985;28;20282;-51
2022/08/28 03:47:54;;;;;;;9.77;3.83;;;15.80;99.90;;;;;;5069526;28;20216;-51
2022/08/28 03:50:23;;;;;;;8.27;3.80;;;15.70;99.90;;;;;;5068929;28;20205;-52
2022/08/28 03:52:51;;;;;;;9.13;3.95;;;15.70;99.90;;;;;;5069427;28;20680;-52
2022/08/28 03:55:21;;;;;;;9.55;3.70;;;15.70;99.90;;;;;;5069517;28;20609;-52
2022/08/28 03:57:50;;;;;;;7.13;3.65;;;15.70;99.90;;;;;;5069233;28;20201;-52
2022/08/28 04:00:19;;;;;;;10.40;3.90;;;15.70;99.90;;;;;;5069415;28;20204;-52
2022/08/28 04:02:47;;;;;;;7.63;3.65;;;15.70;99.90;;;;;;5069355;28;20252;-51
2022/08/28 04:05:15;;;;;;;10.00;4.10;;;15.70;99.90;;;;;;5069610;28;20314;-51
2022/08/28 04:07:43;;;;;;;9.27;3.97;;;15.70;99.90;;;;;;5069877;28;20224;-51
2022/08/28 04:10:12;;;;;;;11.32;4.28;;;15.60;99.90;;;;;;5069219;28;20673;-52
2022/08/28 04:12:43;;;;;;;7.30;4.18;;;15.60;99.90;;;;;;5069631;28;20209;-51
2022/08/28 04:15:13;;;;;;;9.32;3.92;;;15.60;99.90;;;;;;5069544;28;20240;-52
2022/08/28 04:17:42;;;;;;;10.40;4.70;;;15.60;99.90;;;;;;5062713;28;20232;-51
2022/08/28 04:20:11;;;;;;;9.00;3.63;;;15.60;99.90;;;;;;5056039;28;20209;-51
2022/08/28 04:22:39;;;;;;;13.18;4.65;;;15.60;99.90;;;;;;5069391;28;20201;-51
2022/08/28 04:25:08;;;;;;;10.27;4.20;;;15.60;99.90;;;;;;5069252;28;20260;-51
2022/08/28 04:27:36;;;;;;;10.57;4.50;;;15.60;99.90;;;;;;5068138;28;20591;-51
2022/08/28 04:30:07;;;;;;;11.38;4.10;;;15.60;99.90;;;;;;5067149;28;20259;-51
2022/08/28 04:32:38;;;;;;;11.90;4.30;;;15.60;99.90;;;;;;5060964;28;20224;-51
2022/08/28 04:35:08;;;;;;;11.07;4.23;;;15.70;99.90;;;;;;5066518;28;20341;-51
2022/08/28 04:37:37;;;;;;;12.10;4.50;;;15.70;99.90;;;;;;5069257;28;20270;-51
2022/08/28 04:40:08;;;;;;;8.35;4.00;;;15.70;99.90;;;;;;5066398;28;20212;-52
2022/08/28 04:42:38;;;;;;;10.68;4.20;;;15.70;99.90;;;;;;5058325;28;20736;-52
2022/08/28 04:45:08;;;;;;;8.90;4.60;;;15.70;99.90;;;;;;5069498;28;20718;-52
2022/08/28 04:47:37;;;;;;;13.73;4.45;;;15.70;99.90;;;;;;5069092;28;20582;-51
2022/08/28 04:50:07;;;;;;;10.80;4.37;;;15.70;99.90;;;;;;5069560;28;20212;-52
2022/08/28 04:52:35;;;;;;;9.13;4.35;;;15.80;99.90;;;;;;5053333;28;20204;-52
2022/08/28 04:55:04;;;;;;;11.63;5.40;;;15.80;99.90;;;;;;5048472;28;20256;-52
2022/08/28 04:57:33;;;;;;;14.77;4.87;;;15.80;99.90;;;;;;5063796;28;20220;-52
2022/08/28 05:00:05;;;;;;;12.98;4.72;;;15.90;99.90;;;;;;5065951;28;20201;-52
2022/08/28 05:02:35;;;;;;;12.93;5.20;;;15.90;99.90;;;;;;5064364;28;20745;-51
2022/08/28 05:05:03;;;;;;;13.23;5.43;;;15.90;99.90;;;;;;5055465;28;20263;-52
2022/08/28 05:07:32;;;;;;;12.60;4.82;;;15.90;99.90;;;;;;5031875;28;20314;-51
2022/08/28 05:10:00;;;;;;;13.00;4.85;;;16.10;99.90;;;;;;5029988;28;20226;-51
2022/08/28 05:12:28;;;;;;;13.23;5.25;;;16.20;99.90;;;;;;5028761;28;20741;-51
2022/08/28 05:14:56;;;;;;;14.85;5.20;;;16.30;99.90;;;;;;5032210;28;20238;-51
2022/08/28 05:17:24;;;;;;;14.23;5.18;;;16.40;99.90;;;;;;5030581;28;20687;-50
2022/08/28 05:19:54;;;;;;;13.02;5.45;;;16.40;99.90;;;;;;5032903;28;20202;-51
2022/08/28 05:22:22;;;;;;;10.90;5.38;;;16.50;99.90;;;;;;5038091;28;20201;-51
2022/08/28 05:24:50;;;;;;;13.88;5.55;;;16.70;99.90;;;;;;5034291;28;20226;-52
2022/08/28 05:27:18;;;;;;;14.93;5.53;;;16.90;99.90;;;;;;5030472;28;20206;-51
2022/08/28 05:29:46;;;;;;;15.23;5.63;;;16.90;99.90;;;;;;5035480;28;20315;-51
2022/08/28 05:32:14;;;;;;;17.33;5.78;;;16.80;99.90;;;;;;5044292;28;20226;-51
2022/08/28 05:34:42;;;;;;;17.05;5.85;;;16.70;99.90;;;;;;5035008;28;20233;-50
2022/08/28 05:37:12;;;;;;;15.73;5.50;;;16.70;99.90;;;;;;5041895;28;20672;-52
2022/08/28 05:39:46;;;;;;;14.32;5.50;;;16.70;99.90;;;;;;5027736;28;20237;-51
2022/08/28 05:42:14;;;;;;;13.13;5.50;;;16.70;99.90;;;;;;5033384;28;20292;-51
2022/08/28 05:44:42;;;;;;;14.55;5.63;;;16.70;99.90;;;;;;5033691;28;20226;-52
2022/08/28 05:47:10;;;;;;;14.05;5.22;;;16.60;99.90;;;;;;5031244;28;20215;-51
2022/08/28 05:49:39;;;;;;;14.95;5.53;;;16.60;99.90;;;;;;5028222;28;20223;-51
2022/08/28 05:52:07;;;;;;;14.68;5.88;;;16.60;99.90;;;;;;5042273;28;20671;-51
2022/08/28 05:54:37;;;;;;;15.57;5.90;;;16.70;99.90;;;;;;5040408;28;20649;-52
2022/08/28 05:57:05;;;;;;;15.02;5.60;;;16.80;99.90;;;;;;5051910;28;20272;-51
2022/08/28 05:59:33;;;;;;;13.23;5.93;;;16.80;99.90;;;;;;5037583;28;20248;-51
2022/08/28 06:02:01;;;;;;;15.05;5.88;;;16.90;99.90;;;;;;5038995;28;20210;-51
2022/08/28 06:04:31;;;;;;;18.60;5.70;;;17.00;99.90;;;;;;5049045;28;20265;-51
2022/08/28 06:06:59;;;;;;;17.40;5.78;;;17.00;99.90;;;;;;5043565;28;20293;-51
2022/08/28 06:09:28;;;;;;;14.65;5.65;;;17.20;99.90;;;;;;5050823;28;20218;-52
2022/08/28 06:12:01;;;;;;;14.48;6.05;;;17.30;99.90;;;;;;5050134;28;20214;-51
2022/08/28 06:14:30;;;;;;;16.92;5.90;;;17.30;99.90;;;;;;5048328;28;20734;-52
2022/08/28 06:17:00;;;;;;;11.32;5.07;;;17.50;99.90;;;;;;5050044;28;20209;-51
2022/08/28 06:19:30;;;;;;;11.15;5.00;;;17.60;99.90;;;;;;5050956;28;20537;-51
2022/08/28 06:22:01;;;;;;;17.00;5.75;;;17.90;99.90;;;;;;5050796;28;20213;-52
2022/08/28 06:24:35;;;;;;;13.85;5.45;;;18.50;99.90;;;;;;5049734;28;20229;-51
2022/08/28 06:27:06;;;;;;;11.48;5.25;;;18.60;99.90;;;;;;5046745;28;20205;-51
2022/08/28 06:29:35;;;;;;;13.70;5.65;;;18.90;99.90;;;;;;5049999;28;20232;-52
2022/08/28 06:32:04;;;;;;;19.15;5.57;;;19.20;99.90;;;;;;5050064;28;20628;-52
2022/08/28 06:34:32;;;;;;;13.40;5.18;;;19.40;99.90;;;;;;5049789;28;20229;-52
2022/08/28 06:37:00;;;;;;;13.57;5.20;;;19.40;99.90;;;;;;5050395;28;20208;-52
2022/08/28 06:39:29;;;;;;;17.73;5.65;;;19.50;99.90;;;;;;5049817;28;20213;-52
2022/08/28 06:41:57;;;;;;;15.75;5.63;;;19.30;99.90;;;;;;5049674;28;20576;-51
2022/08/28 06:44:26;;;;;;;12.45;4.95;;;19.10;99.90;;;;;;5050022;28;20221;-52
2022/08/28 06:46:55;;;;;;;13.85;5.30;;;18.90;99.90;;;;;;5053402;28;20621;-51
2022/08/28 06:49:23;;;;;;;15.25;5.30;;;18.80;99.90;;;;;;5055117;28;20209;-52
2022/08/28 06:51:51;;;;;;;14.68;5.47;;;18.90;99.90;;;;;;5052802;28;20626;-51
2022/08/28 06:54:19;;;;;;;14.13;5.18;;;19.10;99.90;;;;;;5054719;28;20221;-51
2022/08/28 06:56:50;;;;;;;12.50;5.10;;;19.20;99.90;;;;;;5052195;28;20209;-51
2022/08/28 06:59:19;;;;;;;11.90;5.28;;;19.20;99.90;;;;;;5049549;28;20212;-52
2022/08/28 07:01:48;;;;;;;12.68;5.50;;;19.20;99.90;;;;;;5050713;28;20630;-53
2022/08/28 07:04:16;;;;;;;14.65;5.47;;;19.20;99.90;;;;;;5049643;28;20595;-52
2022/08/28 07:06:48;;;;;;;12.82;5.13;;;19.00;99.90;;;;;;5049444;28;20209;-51
2022/08/28 07:09:22;;;;;;;15.07;5.55;;;18.90;99.90;;;;;;5049430;28;20225;-51
2022/08/28 07:11:51;;;;;;;13.00;4.90;;;19.00;99.90;;;;;;5050107;28;20205;-52
2022/08/28 07:14:19;;;;;;;14.20;5.20;;;19.30;99.90;;;;;;5049355;28;20662;-52
2022/08/28 07:16:49;;;;;;;14.48;5.68;;;19.20;99.90;;;;;;5051133;28;20274;-51
2022/08/28 07:19:18;;;;;;;19.42;5.53;;;19.20;99.90;;;;;;5047569;28;20243;-52
2022/08/28 07:21:46;;;;;;;19.70;5.63;;;19.10;99.90;;;;;;5051493;28;20208;-51
2022/08/28 07:24:17;;;;;;;12.75;4.68;;;19.00;99.90;;;;;;5049099;28;20221;-52
2022/08/28 07:26:46;;;;;;;12.25;5.20;;;19.10;99.90;;;;;;5050833;28;20541;-52
2022/08/28 07:29:15;;;;;;;12.05;5.40;;;19.20;99.90;;;;;;5052395;28;20213;-52
2022/08/28 07:31:45;;;;;;;14.40;5.05;;;19.80;99.90;;;;;;5051342;28;20209;-51
2022/08/28 07:34:16;;;;;;;13.23;4.80;;;19.80;99.90;;;;;;5044650;28;20225;-52
2022/08/28 07:36:45;;;;;;;14.63;5.53;;;20.20;99.90;;;;;;5044340;28;20241;-51
2022/08/28 07:39:14;;;;;;;11.88;5.20;;;20.50;99.90;;;;;;5054126;28;20283;-52
2022/08/28 07:41:43;;;;;;;18.02;5.53;;;20.90;99.90;;;;;;5049992;28;20610;-52
2022/08/28 07:47:02;;;;;;;11.98;5.53;;;21.30;99.90;;;;;;5049996;28;20255;-52
2022/08/28 07:49:34;;;;;;;10.55;4.82;;;21.20;99.90;;;;;;5034064;28;20693;-54
2022/08/28 07:52:03;;;;;;;12.32;5.53;;;21.10;99.90;;;;;;5047914;28;20658;-53
2022/08/28 07:54:32;;;;;;;14.82;5.30;;;21.10;99.90;;;;;;5048905;28;20565;-52
2022/08/28 07:57:01;;;;;;;10.30;4.78;;;20.90;99.90;;;;;;5049237;28;20210;-52
2022/08/28 07:59:29;;;;;;;13.20;4.88;;;20.80;99.90;;;;;;5049150;28;20213;-53
2022/08/28 08:02:04;;;;;;;14.02;5.20;;;20.60;99.90;;;;;;5048852;28;20297;-52
2022/08/28 08:04:34;;;;;;;11.80;5.28;;;20.50;99.90;;;;;;5047199;28;20225;-51
2022/08/28 08:07:03;;;;;;;12.10;4.93;;;20.10;99.90;;;;;;5049012;28;20205;-52
2022/08/28 08:09:35;;;;;;;11.65;5.10;;;20.00;99.90;;;;;;5049539;28;20209;-52
2022/08/28 08:12:04;;;;;;;10.07;5.18;;;20.00;99.90;;;;;;5052168;28;20201;-52
2022/08/28 08:14:32;;;;;;;12.52;5.28;;;20.10;99.90;;;;;;5048646;28;20237;-53
2022/08/28 08:17:02;;;;;;;11.30;5.28;;;20.20;99.90;;;;;;5056047;28;20210;-51
2022/08/28 08:19:36;;;;;;;12.27;5.47;;;20.50;99.90;;;;;;5048074;28;20209;-52
2022/08/28 08:22:05;;;;;;;10.73;5.10;;;20.50;99.90;;;;;;5051818;28;20216;-51
2022/08/28 08:24:33;;;;;;;10.90;5.03;;;20.50;99.90;;;;;;5048814;28;20230;-52
2022/08/28 08:27:02;;;;;;;11.30;5.30;;;20.50;99.90;;;;;;5052051;28;20202;-53
2022/08/28 08:29:34;;;;;;;13.35;5.20;;;20.60;99.90;;;;;;5048715;28;20206;-52
2022/08/28 08:32:05;;;;;;;14.43;5.53;;;20.60;99.90;;;;;;5045482;28;20301;-51
2022/08/28 08:34:38;;;;;;;8.73;4.82;;;20.70;99.90;;;;;;5045133;28;20230;-52
2022/08/28 08:37:07;;;;;;;11.52;5.45;;;20.70;99.90;;;;;;5045382;28;20205;-53
2022/08/28 08:39:36;;;;;;;12.60;5.60;;;20.80;99.90;;;;;;5044833;28;20259;-52
2022/08/28 08:42:07;;;;;;;11.55;5.38;;;20.70;99.90;;;;;;5045071;28;20275;-53
2022/08/28 08:44:40;;;;;;;10.18;5.22;;;20.70;99.90;;;;;;5045440;28;20217;-52
2022/08/28 08:47:12;;;;;;;12.10;5.07;;;20.90;99.90;;;;;;5049855;28;20272;-52
2022/08/28 08:49:51;;;;;;;10.00;4.85;;;20.80;99.90;;;;;;5048658;28;20862;-52
2022/08/28 08:52:33;;;;;;;10.88;5.43;;;20.70;99.90;;;;;;5052757;28;20205;-51
2022/08/28 08:55:22;;;;;;;13.77;5.15;;;20.50;99.90;;;;;;5051983;28;20233;-52
2022/08/28 08:58:05;;;;;;;10.52;5.35;;;20.60;99.90;;;;;;5045995;28;20209;-51
2022/08/28 09:00:39;;;;;;;10.20;4.95;;;20.60;99.90;;;;;;5046042;28;20205;-49
2022/08/28 09:03:13;;;;;;;13.23;5.53;;;20.70;99.90;;;;;;5053397;28;20209;-51
2022/08/28 09:05:48;;;;;;;10.30;5.20;;;20.80;99.90;;;;;;5050168;28;20204;-52
2022/08/28 09:08:27;;;;;;;11.07;4.82;;;20.80;99.90;;;;;;5046650;28;20278;-53
2022/08/28 09:11:06;;;;;;;10.98;4.97;;;20.80;99.90;;;;;;5049218;28;20253;-52
2022/08/28 09:13:44;;;;;;;11.35;5.47;;;20.90;99.90;;;;;;5048229;28;20233;-52
2022/08/28 09:16:23;;;;;;;11.77;4.97;;;20.80;99.90;;;;;;5049337;28;20210;-52
2022/08/28 09:18:54;;;;;;;12.18;4.38;;;20.80;99.90;;;;;;5049426;28;20228;-53
2022/08/28 09:21:33;;;;;;;10.52;4.45;;;20.80;99.90;;;;;;5050435;28;20202;-53
2022/08/28 09:24:04;;;;;;;12.35;5.20;;;20.90;99.90;;;;;;5068121;28;20224;-52
2022/08/28 09:26:39;;;;;;;10.30;4.45;;;21.00;99.90;;;;;;5076779;28;20204;-53
2022/08/28 09:29:15;;;;;;;9.52;4.75;;;21.30;99.90;;;;;;5072214;28;20205;-52
2022/08/28 09:31:43;;;;;;;8.32;4.07;;;21.20;99.90;;;;;;5076712;28;20216;-52
2022/08/28 09:34:26;;;;;;;7.05;3.88;;;21.00;99.90;;;;;;5071967;28;20232;-52
2022/08/28 09:36:57;;;;;;;10.68;3.70;;;21.00;99.90;;;;;;5076171;28;20665;-52
2022/08/28 09:39:28;;;;;;;9.55;3.95;;;21.00;99.90;;;;;;5072258;28;20255;-52
2022/08/28 09:45:06;;;;;;;9.10;3.50;;;21.00;99.90;;;;;;5074268;28;20232;-52
2022/08/28 09:47:43;;;;;;;8.70;3.92;;;21.00;99.90;;;;;;5073931;28;20267;-52
2022/08/28 09:50:24;;;;;;;11.98;3.88;;;21.00;99.90;;;;;;5073595;28;20909;-52
2022/08/28 09:52:55;;;;;;;7.78;3.70;;;21.00;99.90;;;;;;5074124;28;20289;-53
2022/08/28 09:55:33;;;;;;;7.40;3.67;;;21.10;99.90;;;;;;5073520;28;20716;-52
2022/08/28 09:58:01;;;;;;;7.43;3.40;;;21.20;99.90;;;;;;5070353;28;20221;-52
2022/08/28 10:00:35;;;;;;;9.45;3.58;;;21.10;99.90;;;;;;5063174;28;20213;-52
2022/08/28 10:03:13;;;;;;;9.93;4.10;;;21.20;99.90;;;;;;5066084;28;20266;-52
2022/08/28 10:05:53;;;;;;;9.30;4.05;;;21.20;99.90;;;;;;5070396;28;20251;-52
2022/08/28 10:08:33;;;;;;;11.98;3.90;;;21.20;99.90;;;;;;5068509;28;20214;-52
2022/08/28 10:11:12;;;;;;;9.00;3.58;;;21.10;99.90;;;;;;5068141;28;20718;-52
2022/08/28 10:13:50;;;;;;;10.68;3.90;;;21.20;99.90;;;;;;5067897;28;20316;-51
2022/08/28 10:16:27;;;;;;;9.13;3.83;;;21.30;99.90;;;;;;5068380;28;20208;-52
2022/08/28 10:19:05;;;;;;;7.55;3.45;;;21.20;99.90;;;;;;5068839;28;20733;-52
2022/08/28 10:21:41;;;;;;;8.63;3.90;;;21.30;99.90;;;;;;5064653;28;20193;-53
2022/08/28 10:24:29;;;;;;;8.30;3.30;;;21.30;99.90;;;;;;5069416;28;20271;-52
2022/08/28 10:27:09;;;;;;;7.75;3.65;;;21.40;99.90;;;;;;5069498;28;20197;-52
2022/08/28 10:29:48;;;;;;;7.25;3.83;;;21.50;99.90;;;;;;5074179;28;20213;-52
2022/08/28 10:32:35;;;;;;;7.63;3.97;;;21.60;99.90;;;;;;5075900;28;20635;-52
2022/08/28 10:35:08;;;;;;;6.97;3.50;;;21.70;99.90;;;;;;5067653;28;20229;-52
2022/08/28 10:37:47;;;;;;;7.57;3.53;;;21.50;99.90;;;;;;5072920;28;20234;-52
2022/08/28 10:40:22;;;;;;;8.50;3.83;;;21.60;99.90;;;;;;5071683;28;20209;-52
2022/08/28 10:42:56;;;;;;;8.55;4.10;;;21.70;99.90;;;;;;5072426;28;20208;-52
2022/08/28 10:45:25;;;;;;;8.07;3.55;;;21.80;99.90;;;;;;5068060;28;20235;-52
2022/08/28 10:47:58;;;;;;;9.68;3.88;;;21.80;99.90;;;;;;5073177;28;20256;-52
2022/08/28 10:50:33;;;;;;;8.18;3.55;;;21.80;99.90;;;;;;5072012;28;20278;-52
2022/08/28 10:53:06;;;;;;;10.20;4.03;;;21.90;99.90;;;;;;5070986;28;20232;-53
2022/08/28 10:55:39;;;;;;;7.82;3.40;;;21.80;99.90;;;;;;5070075;28;20239;-51
2022/08/28 10:58:09;;;;;;;6.75;3.63;;;21.80;99.90;;;;;;5067023;28;20550;-52
2022/08/28 11:00:54;;;;;;;9.95;3.70;;;21.90;99.90;;;;;;5066741;28;20212;-52
2022/08/28 11:03:24;;;;;;;9.15;3.75;;;21.90;99.90;;;;;;5071872;28;20196;-52
2022/08/28 11:06:04;;;;;;;7.60;3.83;;;22.00;99.90;;;;;;5075312;28;20304;-52
2022/08/28 11:08:34;;;;;;;9.05;3.63;;;22.00;99.90;;;;;;5065832;28;20209;-52
2022/08/28 11:11:06;;;;;;;7.38;3.47;;;22.00;99.90;;;;;;5069982;28;20228;-53
2022/08/28 11:13:51;;;;;;;7.88;3.35;;;21.90;99.90;;;;;;5069139;28;20233;-52
2022/08/28 11:16:22;;;;;;;8.00;3.50;;;22.00;99.90;;;;;;5059897;28;20217;-51
2022/08/28 11:19:04;;;;;;;9.15;3.75;;;22.10;99.90;;;;;;5060721;28;20258;-52
2022/08/28 11:21:42;;;;;;;6.97;3.00;;;22.10;99.90;;;;;;5067101;28;20251;-52
2022/08/28 11:24:26;;;;;;;8.57;3.85;;;22.20;99.90;;;;;;5068849;28;20290;-52
2022/08/28 11:27:06;;;;;;;7.35;3.60;;;22.40;99.90;;;;;;5067568;28;20250;-51
2022/08/28 11:30:00;;;;;;;8.10;3.30;;;22.30;99.90;;;;;;5070979;28;20213;-51
2022/08/28 11:32:39;;;;;;;6.60;3.08;;;22.30;99.90;;;;;;5067674;28;20209;-52
2022/08/28 11:35:49;;;;;;;8.75;3.42;;;22.30;99.90;;;;;;5059026;28;20224;-52
2022/08/28 11:38:55;;;;;;;8.32;3.30;;;22.30;99.90;;;;;;5063993;28;20201;-52
2022/08/28 11:41:26;;;;;;;9.13;3.53;;;22.30;99.90;;;;;;5059539;28;20209;-51
2022/08/28 11:44:29;;;;;;;7.18;3.20;;;22.50;99.90;;;;;;5067906;28;20221;-52
2022/08/28 11:47:45;;;;;;;6.13;2.85;;;22.60;99.90;;;;;;5064746;28;20279;-52
2022/08/28 11:50:19;;;;;;;6.63;3.08;;;22.70;99.90;;;;;;5063721;28;20205;-52
2022/08/28 11:53:18;;;;;;;9.35;3.30;;;22.60;99.90;;;;;;5069686;28;20309;-51
2022/08/28 11:56:22;;;;;;;7.60;3.25;;;22.50;99.90;;;;;;5073010;28;20205;-51
2022/08/28 11:59:18;;;;;;;6.72;3.28;;;22.50;99.90;;;;;;5068915;28;20209;-52
2022/08/28 12:01:48;;;;;;;6.53;3.30;;;22.60;99.90;;;;;;5063414;28;20259;-51
2022/08/28 12:04:20;;;;;;;9.20;3.17;;;22.70;99.90;;;;;;5065113;28;20775;-52
2022/08/28 12:06:54;;;;;;;9.10;3.58;;;22.60;99.90;;;;;;5067214;28;20686;-51
2022/08/28 12:09:43;;;;;;;6.43;3.38;;;22.70;99.90;;;;;;5066334;28;20286;-52
2022/08/28 12:12:35;;;;;;;7.40;2.97;;;22.80;99.90;;;;;;5066885;28;20609;-51
2022/08/28 12:15:08;;;;;;;7.00;3.17;;;22.80;99.90;;;;;;5068472;28;20228;-53
2022/08/28 12:17:48;;;;;;;7.63;3.15;;;22.90;99.90;;;;;;5065437;28;20294;-52
2022/08/28 12:20:44;;;;;;;6.38;3.00;;;22.90;99.90;;;;;;5068504;28;20201;-51
2022/08/28 12:23:40;;;;;;;10.60;3.28;;;22.80;99.90;;;;;;5068141;28;20206;-52
2022/08/28 12:26:17;;;;;;;8.57;3.30;;;22.80;99.90;;;;;;5064035;28;20259;-52
2022/08/28 12:28:48;;;;;;;5.68;3.08;;;22.60;99.90;;;;;;5067584;28;20204;-52
2022/08/28 12:32:14;;;;;;;8.02;3.13;;;22.60;99.90;;;;;;5066688;28;20205;-52
2022/08/28 12:34:49;;;;;;;8.52;3.00;;;22.60;99.50;;;;;;5064475;28;20225;-52
2022/08/28 12:37:38;;;;;;;6.65;3.03;;;22.60;99.90;;;;;;5067358;28;20196;-52
2022/08/28 12:40:23;;;;;;;5.00;2.60;;;22.60;99.40;;;;;;5065074;28;20197;-52
2022/08/28 12:42:54;;;;;;;7.30;3.90;;;22.50;99.00;;;;;;5068193;28;20288;-52
2022/08/28 12:45:29;;;;;;;6.95;2.92;;;22.60;99.70;;;;;;5067287;28;20311;-53
2022/08/28 12:48:01;;;;;;;7.22;2.95;;;22.80;99.10;;;;;;5068050;28;20192;-50
2022/08/28 12:50:34;;;;;;;6.22;2.72;;;22.80;99.10;;;;;;5070767;28;20209;-52
2022/08/28 12:53:06;;;;;;;5.72;2.45;;;22.70;99.50;;;;;;5071322;28;20255;-52
2022/08/28 12:55:34;;;;;;;7.18;2.53;;;22.70;98.40;;;;;;5069883;28;20236;-53
2022/08/28 12:58:02;;;;;;;7.53;2.83;;;22.80;98.70;;;;;;5051111;28;20208;-53
2022/08/28 13:00:33;;;;;;;7.55;2.70;;;22.70;98.50;;;;;;5069539;28;20258;-52
2022/08/28 13:03:02;;;;;;;6.30;3.00;;;22.70;99.40;;;;;;5074345;28;20211;-51
2022/08/28 13:05:33;;;;;;;5.68;2.80;;;22.70;99.50;;;;;;5072844;28;20225;-52
2022/08/28 13:08:05;;;;;;;6.90;2.60;;;22.70;99.30;;;;;;5074793;28;20212;-52
2022/08/28 13:10:38;;;;;;;8.65;2.80;;;22.60;99.10;;;;;;5075668;28;20580;-52
2022/08/28 13:13:10;;;;;;;6.50;2.78;;;22.60;99.40;;;;;;5074971;28;20221;-52
2022/08/28 13:15:54;;;;;;;5.22;2.55;;;22.50;99.50;;;;;;5061554;28;20237;-51
2022/08/28 13:18:48;;;;;;;6.45;2.42;;;22.70;99.90;;;;;;5061532;28;20279;-52